Time;durP1;ratioP1;P1;durP2;ratioP2;P2;SDS_P1;SDS_P2;PMS_P1;PMS_P2;Temp;Humidity;BMP_temperature;BMP_pressure;BME280_temperature;BME280_humidity;BME280_pressure;Samples;Min_cycle;Max_cycle;Signal;HPM_P1;HPM_P2
2021/07/27 00:01:58;;;;;;;2.60;2.40;;;25.60;66.60;;;;;;4989028;28;20208;-64
2021/07/27 00:04:24;;;;;;;2.53;2.33;;;25.60;66.60;;;;;;4987212;28;20232;-64
2021/07/27 00:06:51;;;;;;;2.28;2.08;;;25.60;66.60;;;;;;4989648;28;20199;-64
2021/07/27 00:09:17;;;;;;;2.38;2.17;;;25.60;66.70;;;;;;4990048;28;20204;-64
2021/07/27 00:11:44;;;;;;;2.17;1.98;;;25.60;66.60;;;;;;4989523;28;20226;-63
2021/07/27 00:14:10;;;;;;;2.17;1.98;;;25.60;66.60;;;;;;4984998;28;20241;-64
2021/07/27 00:16:37;;;;;;;2.55;2.35;;;25.60;66.60;;;;;;4986379;28;20222;-64
2021/07/27 00:19:03;;;;;;;2.40;2.20;;;25.60;66.60;;;;;;4989274;28;20207;-64
2021/07/27 00:21:29;;;;;;;2.50;2.30;;;25.60;66.60;;;;;;4987906;28;20632;-64
2021/07/27 00:23:56;;;;;;;2.40;2.20;;;25.60;66.60;;;;;;4985143;28;20598;-64
2021/07/27 00:26:24;;;;;;;2.40;2.20;;;25.60;66.60;;;;;;4987675;28;20659;-65
2021/07/27 00:28:51;;;;;;;2.60;2.40;;;25.60;66.60;;;;;;4989027;28;20211;-64
2021/07/27 00:31:17;;;;;;;2.30;2.10;;;25.60;66.70;;;;;;4990755;28;20203;-64
2021/07/27 00:33:44;;;;;;;2.30;2.10;;;25.60;66.70;;;;;;4987534;28;20242;-64
2021/07/27 00:36:10;;;;;;;2.60;2.40;;;25.60;66.70;;;;;;4989015;28;20299;-64
2021/07/27 00:38:36;;;;;;;2.58;2.38;;;25.60;66.70;;;;;;4989701;28;20210;-64
2021/07/27 00:41:03;;;;;;;2.40;2.20;;;25.60;66.60;;;;;;4991399;28;20210;-63
2021/07/27 00:43:29;;;;;;;2.28;2.08;;;25.60;66.60;;;;;;4987724;28;20231;-64
2021/07/27 00:45:56;;;;;;;2.58;2.38;;;25.60;66.70;;;;;;4987296;28;20203;-64
2021/07/27 00:48:23;;;;;;;2.30;1.85;;;25.60;66.60;;;;;;4991745;28;20220;-64
2021/07/27 00:50:49;;;;;;;2.70;2.50;;;25.60;66.70;;;;;;4992731;28;20249;-64
2021/07/27 00:53:15;;;;;;;2.45;2.25;;;25.60;66.70;;;;;;4991774;28;20235;-64
2021/07/27 00:55:42;;;;;;;2.55;2.35;;;25.60;66.70;;;;;;4993355;28;20294;-64
2021/07/27 00:58:09;;;;;;;2.60;2.40;;;25.60;66.70;;;;;;4992327;28;20204;-64
2021/07/27 01:00:35;;;;;;;2.40;2.20;;;25.60;66.70;;;;;;4993225;28;20200;-64
2021/07/27 01:03:02;;;;;;;2.15;2.00;;;25.60;66.80;;;;;;4991646;28;20222;-64
2021/07/27 01:05:29;;;;;;;2.88;2.35;;;25.60;66.80;;;;;;4991432;28;20200;-64
2021/07/27 01:07:55;;;;;;;3.08;2.20;;;25.60;66.80;;;;;;4990896;28;20200;-64
2021/07/27 01:10:21;;;;;;;2.72;2.40;;;25.60;66.80;;;;;;4992091;28;20192;-64
2021/07/27 01:12:48;;;;;;;2.05;1.85;;;25.60;66.80;;;;;;4992366;28;20246;-64
2021/07/27 01:15:14;;;;;;;2.72;2.10;;;25.60;66.80;;;;;;4993062;28;20214;-64
2021/07/27 01:17:41;;;;;;;2.45;2.25;;;25.60;66.80;;;;;;4989738;28;20204;-64
2021/07/27 01:20:13;;;;;;;2.17;1.92;;;25.60;66.80;;;;;;4988694;28;20656;-63
2021/07/27 01:39:24;;;;;;;3.92;2.03;;;25.60;66.90;;;;;;4992426;28;20261;-62
2021/07/27 01:44:34;;;;;;;2.40;2.20;;;25.60;66.90;;;;;;4993371;28;20210;-63
2021/07/27 01:47:00;;;;;;;3.85;2.28;;;25.60;66.90;;;;;;4990817;28;20200;-62
2021/07/27 01:49:27;;;;;;;2.60;2.40;;;25.60;66.90;;;;;;4999526;28;20196;-63
2021/07/27 01:51:54;;;;;;;2.47;2.28;;;25.60;67.00;;;;;;4989083;28;20196;-63
2021/07/27 01:54:28;;;;;;;2.78;2.30;;;25.60;67.00;;;;;;4993545;28;20227;-63
2021/07/27 01:56:55;;;;;;;2.05;1.83;;;25.60;67.00;;;;;;4990646;28;20245;-63
2021/07/27 01:59:21;;;;;;;3.22;2.10;;;25.60;67.00;;;;;;4992347;28;20222;-63
2021/07/27 02:01:48;;;;;;;2.53;2.17;;;25.60;67.00;;;;;;4993183;28;20204;-63
2021/07/27 02:04:14;;;;;;;2.67;1.90;;;25.60;67.00;;;;;;4991679;28;20223;-62
2021/07/27 02:06:41;;;;;;;2.25;1.88;;;25.60;67.00;;;;;;4994598;28;20258;-63
2021/07/27 02:09:08;;;;;;;2.63;2.42;;;25.60;66.80;;;;;;4990956;28;20263;-63
2021/07/27 02:11:40;;;;;;;2.38;2.03;;;25.60;67.00;;;;;;4992260;28;20211;-63
2021/07/27 02:14:07;;;;;;;3.10;2.90;;;25.60;67.00;;;;;;4988621;28;20630;-63
2021/07/27 02:16:36;;;;;;;2.20;2.00;;;25.60;67.20;;;;;;4991172;28;20295;-63
2021/07/27 02:19:02;;;;;;;2.38;2.00;;;25.60;67.30;;;;;;4989952;28;20235;-63
2021/07/27 02:21:28;;;;;;;2.60;2.40;;;25.60;67.20;;;;;;4989331;28;20227;-63
2021/07/27 02:23:55;;;;;;;2.67;2.10;;;25.60;67.40;;;;;;4987029;28;20223;-63
2021/07/27 02:26:21;;;;;;;2.03;1.83;;;25.60;67.40;;;;;;4989894;28;20546;-63
2021/07/27 02:28:48;;;;;;;2.50;2.00;;;25.60;67.40;;;;;;4986324;28;20683;-62
2021/07/27 02:31:19;;;;;;;3.22;2.10;;;25.60;67.40;;;;;;4990122;28;20207;-63
2021/07/27 02:33:45;;;;;;;2.28;2.03;;;25.60;67.40;;;;;;4990136;28;20232;-63
2021/07/27 02:36:11;;;;;;;2.45;2.25;;;25.60;67.50;;;;;;4991379;28;20203;-63
2021/07/27 02:38:38;;;;;;;1.73;1.63;;;25.60;67.40;;;;;;4985119;28;20200;-62
2021/07/27 02:41:04;;;;;;;2.30;1.92;;;25.60;67.40;;;;;;5005606;28;20200;-62
2021/07/27 02:43:31;;;;;;;2.30;2.10;;;25.60;67.50;;;;;;4990311;28;20238;-62
2021/07/27 02:45:57;;;;;;;2.00;1.83;;;25.60;67.50;;;;;;4989037;28;20210;-62
2021/07/27 02:48:24;;;;;;;2.05;1.85;;;25.60;68.20;;;;;;4990616;28;20208;-63
2021/07/27 02:50:50;;;;;;;1.98;1.88;;;25.60;67.50;;;;;;4989455;28;20230;-63
2021/07/27 02:53:16;;;;;;;2.00;1.80;;;25.60;67.50;;;;;;4991458;28;20235;-63
2021/07/27 02:55:43;;;;;;;2.00;1.80;;;25.60;67.50;;;;;;4989971;28;20204;-63
2021/07/27 02:58:10;;;;;;;2.13;1.80;;;25.60;67.50;;;;;;4995051;28;20206;-63
2021/07/27 03:00:36;;;;;;;2.20;1.95;;;25.60;67.50;;;;;;4990530;28;20234;-63
2021/07/27 03:03:02;;;;;;;2.08;1.77;;;25.60;67.50;;;;;;4990182;28;20223;-63
2021/07/27 03:05:29;;;;;;;2.20;2.00;;;25.60;67.60;;;;;;4989821;28;20212;-63
2021/07/27 03:07:58;;;;;;;2.08;1.90;;;25.60;67.50;;;;;;4988404;28;20207;-63
2021/07/27 03:10:24;;;;;;;2.75;2.00;;;25.60;67.60;;;;;;4991539;28;20239;-63
2021/07/27 03:12:51;;;;;;;2.10;1.95;;;25.60;67.60;;;;;;4986548;28;20593;-62
2021/07/27 03:15:18;;;;;;;2.20;2.00;;;25.60;67.60;;;;;;4991948;28;20207;-63
2021/07/27 03:17:44;;;;;;;4.25;2.30;;;25.60;67.50;;;;;;4987699;28;20207;-62
2021/07/27 03:20:11;;;;;;;2.05;1.90;;;25.60;67.60;;;;;;4989894;28;20209;-63
2021/07/27 03:22:37;;;;;;;2.65;2.13;;;25.60;67.60;;;;;;4990115;28;20224;-62
2021/07/27 03:25:04;;;;;;;2.80;2.38;;;25.60;67.60;;;;;;4989434;28;20206;-63
2021/07/27 03:27:30;;;;;;;2.35;2.13;;;25.60;67.50;;;;;;4987728;28;20211;-62
2021/07/27 03:29:57;;;;;;;2.72;2.00;;;25.60;67.60;;;;;;4991159;28;20303;-63
2021/07/27 03:32:23;;;;;;;2.25;1.73;;;25.50;68.30;;;;;;4989531;28;20223;-63
2021/07/27 03:34:50;;;;;;;3.03;1.90;;;25.60;67.70;;;;;;4991780;28;20200;-63
2021/07/27 03:37:16;;;;;;;3.75;2.08;;;25.60;67.70;;;;;;4988106;28;20199;-62
2021/07/27 03:39:43;;;;;;;2.28;2.05;;;25.60;67.60;;;;;;4989646;28;20234;-62
2021/07/27 03:42:09;;;;;;;3.00;1.80;;;25.60;67.70;;;;;;4989811;28;20223;-63
2021/07/27 03:44:35;;;;;;;2.80;2.05;;;25.50;67.60;;;;;;4989983;28;20226;-63
2021/07/27 03:47:02;;;;;;;1.95;1.77;;;25.60;67.70;;;;;;4990291;28;20199;-63
2021/07/27 03:49:29;;;;;;;2.28;2.05;;;25.60;67.60;;;;;;4985541;28;20203;-63
2021/07/27 03:51:56;;;;;;;2.05;1.90;;;25.50;67.60;;;;;;4988872;28;20235;-63
2021/07/27 03:54:22;;;;;;;2.35;2.15;;;25.60;67.70;;;;;;4991321;28;20228;-63
2021/07/27 03:56:48;;;;;;;2.10;1.90;;;25.60;67.70;;;;;;4988331;28;20196;-63
2021/07/27 03:59:15;;;;;;;2.20;2.00;;;25.60;67.70;;;;;;4987722;28;20200;-63
2021/07/27 04:01:42;;;;;;;1.90;1.80;;;25.50;67.70;;;;;;4988281;28;20211;-62
2021/07/27 04:04:08;;;;;;;2.13;2.00;;;25.60;67.80;;;;;;4976133;28;20248;-63
2021/07/27 04:06:35;;;;;;;2.20;1.92;;;25.60;67.80;;;;;;4988541;28;20214;-63
2021/07/27 04:09:01;;;;;;;1.90;1.80;;;25.60;67.70;;;;;;4989425;28;20614;-63
2021/07/27 04:11:28;;;;;;;1.90;1.73;;;25.50;67.70;;;;;;4988386;28;20204;-63
2021/07/27 04:13:54;;;;;;;1.92;1.83;;;25.60;67.60;;;;;;4986929;28;20590;-63
2021/07/27 04:16:21;;;;;;;2.03;1.92;;;25.60;67.70;;;;;;4988223;28;20568;-63
2021/07/27 04:18:47;;;;;;;2.15;1.90;;;25.60;67.70;;;;;;4988680;28;20552;-63
2021/07/27 04:21:13;;;;;;;2.00;1.90;;;25.60;67.70;;;;;;4987212;28;20618;-63
2021/07/27 04:23:40;;;;;;;2.05;1.85;;;25.50;67.70;;;;;;4992047;28;20235;-63
2021/07/27 04:26:06;;;;;;;1.90;1.80;;;25.50;67.30;;;;;;4989480;28;20214;-63
2021/07/27 04:28:33;;;;;;;2.10;1.80;;;25.50;67.60;;;;;;4992679;28;20216;-63
2021/07/27 04:30:59;;;;;;;2.10;1.90;;;25.50;67.70;;;;;;4992087;28;20208;-63
2021/07/27 04:33:26;;;;;;;2.17;2.03;;;25.50;67.70;;;;;;4993219;28;20232;-63
2021/07/27 04:35:52;;;;;;;2.25;1.80;;;25.50;67.70;;;;;;4989230;28;20204;-63
2021/07/27 04:38:18;;;;;;;2.35;2.15;;;25.50;67.70;;;;;;4994524;28;20216;-63
2021/07/27 04:40:45;;;;;;;2.13;1.80;;;25.60;67.80;;;;;;4993186;28;20200;-63
2021/07/27 04:43:11;;;;;;;2.00;1.80;;;25.50;67.70;;;;;;4993794;28;20219;-63
2021/07/27 04:45:38;;;;;;;3.50;1.90;;;25.50;67.70;;;;;;4990981;28;20230;-63
2021/07/27 04:48:04;;;;;;;1.70;1.60;;;25.60;67.70;;;;;;4991549;28;20224;-63
2021/07/27 04:50:31;;;;;;;2.22;2.05;;;25.50;67.70;;;;;;4992346;28;20200;-63
2021/07/27 04:52:59;;;;;;;3.72;2.00;;;25.60;67.80;;;;;;4992433;28;20224;-63
2021/07/27 04:55:26;;;;;;;2.53;1.88;;;25.60;67.80;;;;;;4996223;28;20226;-62
2021/07/27 04:57:52;;;;;;;2.10;1.90;;;25.60;67.80;;;;;;4993326;28;20199;-63
2021/07/27 05:00:18;;;;;;;2.30;2.08;;;25.60;67.80;;;;;;4992781;28;20307;-63
2021/07/27 05:02:45;;;;;;;1.77;1.67;;;25.50;67.70;;;;;;4993106;28;20219;-63
2021/07/27 05:05:11;;;;;;;2.13;1.77;;;25.50;67.70;;;;;;4990817;28;20196;-64
2021/07/27 05:07:38;;;;;;;1.85;1.75;;;25.50;67.70;;;;;;4987273;28;20226;-63
2021/07/27 05:10:04;;;;;;;2.03;1.85;;;25.60;67.60;;;;;;4993487;28;20211;-63
2021/07/27 05:12:31;;;;;;;2.33;1.73;;;25.50;68.30;;;;;;4990488;28;20561;-63
2021/07/27 05:14:57;;;;;;;2.10;1.90;;;25.60;67.80;;;;;;4993739;28;20674;-63
2021/07/27 05:17:24;;;;;;;1.80;1.70;;;25.50;67.70;;;;;;4992766;28;20255;-63
2021/07/27 05:19:50;;;;;;;2.38;2.10;;;25.60;67.70;;;;;;4991607;28;20226;-62
2021/07/27 05:22:17;;;;;;;1.60;1.50;;;25.60;67.40;;;;;;4989509;28;20224;-63
2021/07/27 05:24:43;;;;;;;1.95;1.75;;;25.50;67.70;;;;;;4989493;28;20255;-64
2021/07/27 05:27:10;;;;;;;2.05;1.85;;;25.50;67.70;;;;;;4991552;28;20200;-64
2021/07/27 05:29:36;;;;;;;2.05;1.92;;;25.60;67.70;;;;;;4992523;28;20204;-65
2021/07/27 05:32:03;;;;;;;2.05;1.85;;;25.60;67.70;;;;;;4991525;28;20229;-64
2021/07/27 05:34:29;;;;;;;2.00;1.85;;;25.50;67.70;;;;;;4991007;28;20234;-65
2021/07/27 05:36:56;;;;;;;2.63;1.92;;;25.60;67.70;;;;;;4989133;28;20204;-64
2021/07/27 05:39:22;;;;;;;2.00;1.80;;;25.60;67.70;;;;;;4993735;28;20196;-64
2021/07/27 05:41:48;;;;;;;2.60;2.22;;;25.50;67.70;;;;;;4991790;28;20221;-64
2021/07/27 05:44:15;;;;;;;3.17;1.88;;;25.50;67.70;;;;;;4990543;28;20203;-64
2021/07/27 05:46:41;;;;;;;2.28;2.08;;;25.50;67.70;;;;;;4991725;28;20208;-64
2021/07/27 05:49:10;;;;;;;2.00;1.80;;;25.50;67.70;;;;;;4993685;28;20211;-64
2021/07/27 05:51:37;;;;;;;2.17;1.98;;;25.50;67.60;;;;;;4989547;28;20311;-64
2021/07/27 05:54:03;;;;;;;2.33;1.80;;;25.60;67.70;;;;;;4988069;28;20231;-64
2021/07/27 05:56:30;;;;;;;1.65;1.55;;;25.50;67.70;;;;;;4990171;28;20218;-65
2021/07/27 05:58:56;;;;;;;2.08;1.88;;;25.50;67.60;;;;;;4992481;28;20208;-64
2021/07/27 06:01:22;;;;;;;2.20;1.75;;;25.60;67.60;;;;;;5017080;23;20223;-49
2021/07/27 06:03:49;;;;;;;2.15;1.92;;;25.60;67.60;;;;;;5009813;28;20229;-46
2021/07/27 06:06:15;;;;;;;3.42;1.60;;;25.60;67.50;;;;;;4998208;28;20549;-52
2021/07/27 06:08:42;;;;;;;1.90;1.80;;;25.60;67.50;;;;;;5012698;28;20584;-47
2021/07/27 06:11:09;;;;;;;2.25;2.05;;;25.60;67.50;;;;;;5012072;28;20570;-47
2021/07/27 06:13:35;;;;;;;2.22;2.03;;;25.60;67.50;;;;;;5007154;28;20223;-47
2021/07/27 06:16:02;;;;;;;1.73;1.63;;;25.60;67.50;;;;;;5012044;28;20588;-49
2021/07/27 06:18:28;;;;;;;1.95;1.80;;;25.60;67.50;;;;;;5006376;28;20199;-53
2021/07/27 06:20:55;;;;;;;2.28;2.00;;;25.60;67.40;;;;;;5010668;28;20210;-47
2021/07/27 06:23:21;;;;;;;1.73;1.63;;;25.60;67.50;;;;;;5005296;28;20195;-51
2021/07/27 06:25:48;;;;;;;2.35;1.70;;;25.60;67.50;;;;;;5012347;28;20211;-47
2021/07/27 06:28:14;;;;;;;2.08;1.88;;;25.60;67.40;;;;;;5010391;28;20204;-51
2021/07/27 06:30:41;;;;;;;3.92;1.73;;;25.60;67.40;;;;;;5013033;28;20207;-45
2021/07/27 06:33:07;;;;;;;2.13;1.90;;;25.60;67.60;;;;;;5010594;28;20243;-49
2021/07/27 06:35:33;;;;;;;3.83;1.92;;;25.50;67.60;;;;;;4999361;28;20204;-51
2021/07/27 06:38:00;;;;;;;1.88;1.77;;;25.60;67.60;;;;;;5005260;28;20207;-56
2021/07/27 06:40:26;;;;;;;1.70;1.60;;;25.60;67.70;;;;;;5013711;28;20304;-66
2021/07/27 06:42:53;;;;;;;2.08;1.80;;;25.60;67.80;;;;;;5008706;28;20227;-67
2021/07/27 06:45:19;;;;;;;2.03;1.70;;;25.60;67.70;;;;;;5003480;28;20241;-67
2021/07/27 06:47:46;;;;;;;3.70;1.98;;;25.60;67.60;;;;;;5009632;28;20203;-67
2021/07/27 06:50:12;;;;;;;3.10;1.88;;;25.60;67.50;;;;;;5012421;28;20210;-67
2021/07/27 06:52:39;;;;;;;2.33;1.63;;;25.60;67.50;;;;;;5007050;28;20223;-67
2021/07/27 06:55:05;;;;;;;2.22;1.80;;;25.60;67.50;;;;;;5007662;28;20230;-67
2021/07/27 06:57:31;;;;;;;3.40;1.65;;;25.60;67.50;;;;;;5000368;28;20214;-67
2021/07/27 06:59:58;;;;;;;5.72;2.17;;;25.60;67.50;;;;;;4992491;28;20215;-67
2021/07/27 07:02:28;;;;;;;2.17;1.98;;;25.60;67.60;;;;;;5008346;28;20230;-67
2021/07/27 07:04:54;;;;;;;3.95;1.88;;;25.60;67.50;;;;;;5008609;28;20199;-67
2021/07/27 07:07:21;;;;;;;6.90;2.50;;;25.60;67.50;;;;;;5007468;28;20203;-44
2021/07/27 07:09:48;;;;;;;7.93;2.42;;;25.50;68.50;;;;;;5002290;28;20578;-46
2021/07/27 07:12:14;;;;;;;5.30;2.17;;;25.60;68.70;;;;;;4997461;28;20225;-46
2021/07/27 07:14:41;;;;;;;2.55;2.10;;;25.60;68.90;;;;;;5001077;28;20233;-49
2021/07/27 07:17:08;;;;;;;4.13;1.85;;;25.60;68.50;;;;;;5000878;28;20203;-45
2021/07/27 07:19:35;;;;;;;2.65;1.67;;;25.60;68.10;;;;;;5002130;28;20230;-48
2021/07/27 07:22:01;;;;;;;9.50;2.10;;;25.70;67.90;;;;;;5001444;28;20219;-47
2021/07/27 07:24:28;;;;;;;3.60;1.98;;;25.60;68.30;;;;;;5004379;28;20209;-45
2021/07/27 07:26:54;;;;;;;3.67;3.28;;;25.70;68.50;;;;;;4997826;28;20210;-50
2021/07/27 07:29:21;;;;;;;5.85;3.55;;;24.80;62.90;;;;;;5007409;28;20202;-47
2021/07/27 07:31:47;;;;;;;3.10;2.60;;;23.40;65.30;;;;;;5007942;28;20235;-52
2021/07/27 07:34:15;;;;;;;4.35;2.70;;;23.60;67.40;;;;;;5002661;28;20245;-47
2021/07/27 07:36:42;;;;;;;2.97;2.67;;;24.10;67.00;;;;;;4993985;28;20199;-49
2021/07/27 07:39:08;;;;;;;3.10;2.85;;;24.50;66.90;;;;;;5009153;28;20205;-52
2021/07/27 07:41:35;;;;;;;3.22;2.60;;;24.70;67.40;;;;;;5010241;28;20223;-48
2021/07/27 07:44:01;;;;;;;4.45;2.75;;;24.90;66.60;;;;;;5009875;28;20203;-50
2021/07/27 07:46:28;;;;;;;5.15;2.83;;;25.10;66.40;;;;;;5009116;28;20474;-50
2021/07/27 07:48:54;;;;;;;2.97;2.60;;;25.10;66.40;;;;;;5007461;28;20683;-47
2021/07/27 07:51:20;;;;;;;3.17;2.70;;;25.20;66.60;;;;;;5010998;28;20229;-49
2021/07/27 07:53:47;;;;;;;3.30;3.00;;;25.30;66.70;;;;;;5005083;28;20744;-49
2021/07/27 07:56:13;;;;;;;3.92;2.60;;;25.30;66.70;;;;;;5010003;28;20207;-52
2021/07/27 07:58:40;;;;;;;3.33;2.63;;;25.40;66.80;;;;;;5006477;28;20208;-44
2021/07/27 08:01:06;;;;;;;3.10;2.80;;;25.40;66.90;;;;;;5010077;28;20770;-42
2021/07/27 08:03:33;;;;;;;5.25;2.75;;;25.40;66.90;;;;;;5008596;28;20660;-44
2021/07/27 08:05:59;;;;;;;3.00;2.70;;;25.40;66.90;;;;;;5008032;28;20210;-48
2021/07/27 08:08:26;;;;;;;3.42;2.70;;;25.50;66.50;;;;;;5005543;28;20266;-43
2021/07/27 08:10:52;;;;;;;3.28;2.60;;;25.50;66.10;;;;;;5004236;28;20245;-45
2021/07/27 08:13:19;;;;;;;3.65;2.70;;;25.50;65.80;;;;;;5005494;28;20261;-43
2021/07/27 08:15:47;;;;;;;25.60;4.10;;;25.50;65.50;;;;;;5004779;28;20321;-54
2021/07/27 08:18:14;;;;;;;6.35;3.20;;;25.50;66.10;;;;;;5002491;28;20199;-48
2021/07/27 08:20:40;;;;;;;6.38;3.72;;;25.50;66.00;;;;;;5001952;28;20227;-48
2021/07/27 08:23:07;;;;;;;3.85;3.03;;;25.60;66.20;;;;;;5009573;28;20213;-46
2021/07/27 08:25:33;;;;;;;7.53;3.50;;;25.50;66.10;;;;;;5005891;28;20207;-53
2021/07/27 08:28:00;;;;;;;8.20;3.05;;;25.50;65.90;;;;;;5004884;28;20195;-49
2021/07/27 08:30:27;;;;;;;5.75;3.10;;;25.60;66.10;;;;;;5009405;28;20222;-50
2021/07/27 08:32:54;;;;;;;7.25;3.03;;;25.60;66.10;;;;;;5008273;28;20218;-46
2021/07/27 08:35:20;;;;;;;5.20;2.42;;;25.60;66.20;;;;;;5010879;28;20235;-48
2021/07/27 08:37:47;;;;;;;5.00;2.33;;;25.60;66.10;;;;;;5008280;28;20210;-49
2021/07/27 08:40:14;;;;;;;4.20;2.60;;;25.60;66.10;;;;;;5010741;28;20207;-54
2021/07/27 08:42:41;;;;;;;5.43;2.47;;;25.60;66.10;;;;;;5009035;28;20199;-46
2021/07/27 08:45:07;;;;;;;4.05;2.90;;;25.60;66.10;;;;;;5009011;28;20290;-44
2021/07/27 08:47:34;;;;;;;4.53;2.83;;;25.60;66.10;;;;;;5008443;28;20198;-52
2021/07/27 08:50:00;;;;;;;4.65;2.88;;;25.60;66.10;;;;;;5007839;28;20203;-49
2021/07/27 08:52:27;;;;;;;4.10;2.65;;;25.60;66.00;;;;;;5009524;28;20223;-46
2021/07/27 08:54:53;;;;;;;5.35;3.00;;;25.70;66.00;;;;;;5009627;28;20227;-49
2021/07/27 08:57:20;;;;;;;5.25;3.55;;;25.70;66.00;;;;;;5009187;28;20252;-52
2021/07/27 08:59:46;;;;;;;3.95;2.40;;;25.70;66.10;;;;;;5006720;28;20237;-47
2021/07/27 09:02:13;;;;;;;2.80;2.47;;;25.60;66.00;;;;;;5007739;28;20234;-44
2021/07/27 09:04:39;;;;;;;3.28;2.63;;;25.60;65.90;;;;;;5010466;28;20211;-48
2021/07/27 09:07:06;;;;;;;2.75;2.30;;;25.70;66.00;;;;;;5008246;28;20199;-50
2021/07/27 09:09:32;;;;;;;3.33;2.80;;;25.60;66.00;;;;;;5009371;28;20659;-51
2021/07/27 09:11:59;;;;;;;3.55;2.20;;;25.60;65.90;;;;;;5012159;28;20231;-54
2021/07/27 09:14:25;;;;;;;3.72;2.60;;;25.60;65.90;;;;;;5012354;28;20231;-52
2021/07/27 09:16:52;;;;;;;2.67;2.47;;;25.70;66.10;;;;;;5011706;28;20655;-53
2021/07/27 09:19:18;;;;;;;2.85;2.53;;;25.70;66.10;;;;;;5008767;28;20719;-49
2021/07/27 09:21:45;;;;;;;3.92;2.70;;;25.70;66.10;;;;;;5012683;28;20721;-48
2021/07/27 09:24:12;;;;;;;2.65;2.45;;;25.70;66.10;;;;;;5013422;28;20207;-49
2021/07/27 09:26:38;;;;;;;2.35;2.00;;;25.70;66.10;;;;;;5012339;28;20233;-48
2021/07/27 09:29:05;;;;;;;2.63;2.40;;;25.70;66.10;;;;;;5011616;28;20242;-54
2021/07/27 09:31:31;;;;;;;3.55;2.22;;;25.70;66.20;;;;;;5010543;28;20227;-52
2021/07/27 09:33:58;;;;;;;3.40;2.70;;;25.70;66.20;;;;;;5009924;28;20195;-51
2021/07/27 09:36:25;;;;;;;2.92;2.40;;;25.70;66.20;;;;;;5011518;28;20290;-51
2021/07/27 09:38:52;;;;;;;3.20;2.90;;;25.70;66.20;;;;;;5011246;28;20203;-53
2021/07/27 09:41:18;;;;;;;2.40;2.20;;;25.70;66.20;;;;;;5011949;28;20230;-57
2021/07/27 09:43:45;;;;;;;3.00;2.42;;;25.70;66.10;;;;;;5006775;28;20207;-48
2021/07/27 09:46:11;;;;;;;3.05;2.40;;;25.70;66.00;;;;;;5010516;28;20217;-52
2021/07/27 09:48:40;;;;;;;3.75;2.38;;;25.70;66.10;;;;;;5011423;28;20370;-48
2021/07/27 09:51:07;;;;;;;2.67;2.47;;;25.70;66.10;;;;;;5012759;28;20219;-49
2021/07/27 09:53:33;;;;;;;2.30;2.10;;;25.70;66.10;;;;;;5012454;28;20218;-50
2021/07/27 09:56:00;;;;;;;3.58;2.38;;;25.70;66.10;;;;;;5012277;28;20235;-52
2021/07/27 09:58:27;;;;;;;3.45;2.35;;;25.70;66.10;;;;;;5011399;28;20203;-48
2021/07/27 10:00:54;;;;;;;2.35;2.15;;;25.70;66.00;;;;;;5010425;28;20239;-52
2021/07/27 10:03:20;;;;;;;2.92;2.17;;;25.80;66.10;;;;;;5011824;28;20195;-51
2021/07/27 10:05:47;;;;;;;2.28;2.08;;;25.70;66.00;;;;;;5009900;28;20207;-49
2021/07/27 10:08:13;;;;;;;2.50;2.30;;;25.80;66.20;;;;;;5010500;28;20211;-52
2021/07/27 10:10:40;;;;;;;2.88;2.67;;;25.70;66.10;;;;;;5011167;28;20231;-52
2021/07/27 10:13:06;;;;;;;3.08;2.78;;;25.70;66.10;;;;;;5011446;28;20210;-54
2021/07/27 10:15:33;;;;;;;2.55;2.20;;;25.70;66.10;;;;;;5011223;28;20519;-52
2021/07/27 10:17:59;;;;;;;3.03;2.33;;;25.70;66.10;;;;;;5011404;28;20217;-48
2021/07/27 10:20:26;;;;;;;2.67;2.42;;;25.70;66.10;;;;;;4998249;28;20229;-52
2021/07/27 10:22:52;;;;;;;3.28;2.72;;;25.70;66.00;;;;;;5011592;28;20289;-54
2021/07/27 10:25:20;;;;;;;3.50;2.50;;;25.70;66.00;;;;;;5010791;28;20209;-48
2021/07/27 10:27:46;;;;;;;2.60;2.40;;;25.70;66.00;;;;;;5008152;28;20203;-53
2021/07/27 10:30:13;;;;;;;2.65;2.45;;;25.70;66.00;;;;;;5008784;28;20249;-56
2021/07/27 10:32:41;;;;;;;4.30;2.75;;;25.70;66.00;;;;;;5005669;28;20207;-49
2021/07/27 10:35:07;;;;;;;3.10;2.90;;;25.70;66.70;;;;;;5007671;28;20223;-49
2021/07/27 10:37:34;;;;;;;4.50;2.45;;;25.70;66.80;;;;;;5009525;28;20548;-46
2021/07/27 10:40:02;;;;;;;4.10;2.72;;;25.70;66.70;;;;;;5009349;28;20229;-46
2021/07/27 10:42:28;;;;;;;3.25;2.50;;;25.70;66.50;;;;;;5007438;28;20217;-46
2021/07/27 10:44:55;;;;;;;3.63;2.53;;;25.80;66.50;;;;;;5007356;28;20207;-50
2021/07/27 10:47:21;;;;;;;4.32;2.67;;;25.80;66.70;;;;;;5009591;28;20195;-44
2021/07/27 10:49:48;;;;;;;3.50;2.80;;;25.80;66.90;;;;;;5011825;28;20198;-49
2021/07/27 10:52:14;;;;;;;2.97;2.50;;;25.80;66.70;;;;;;5008442;28;20199;-45
2021/07/27 10:54:41;;;;;;;2.58;2.38;;;25.80;66.90;;;;;;5004486;28;20743;-50
2021/07/27 10:57:07;;;;;;;4.00;2.78;;;25.80;66.60;;;;;;5000498;28;20679;-45
2021/07/27 10:59:35;;;;;;;4.22;3.35;;;25.80;66.30;;;;;;5002019;28;20204;-43
2021/07/27 11:02:01;;;;;;;5.72;4.68;;;25.80;65.40;;;;;;5007749;28;20594;-49
2021/07/27 11:04:28;;;;;;;5.45;4.38;;;25.80;64.20;;;;;;5007242;28;20196;-45
2021/07/27 11:06:54;;;;;;;5.57;4.43;;;25.70;64.10;;;;;;5008918;28;20211;-52
2021/07/27 11:09:21;;;;;;;4.20;3.80;;;25.70;64.00;;;;;;5004450;28;20254;-52
2021/07/27 11:11:47;;;;;;;3.90;3.60;;;25.70;63.50;;;;;;5004016;28;20204;-47
2021/07/27 11:14:14;;;;;;;3.95;3.63;;;25.80;63.10;;;;;;5003993;28;20199;-48
2021/07/27 11:16:40;;;;;;;3.83;3.45;;;25.70;63.20;;;;;;5005954;28;20296;-50
2021/07/27 11:19:07;;;;;;;3.72;3.38;;;25.80;63.10;;;;;;5005101;28;20203;-49
2021/07/27 11:21:33;;;;;;;3.65;3.33;;;25.80;63.10;;;;;;5004447;28;20755;-47
2021/07/27 11:24:00;;;;;;;4.20;3.78;;;25.80;63.10;;;;;;5004672;28;21255;-53
2021/07/27 11:26:26;;;;;;;4.30;3.30;;;25.80;63.00;;;;;;5004521;28;20282;-49
2021/07/27 11:28:53;;;;;;;3.70;3.33;;;25.80;63.10;;;;;;5001025;28;20685;-49
2021/07/27 11:31:19;;;;;;;3.25;2.95;;;25.80;63.20;;;;;;5001441;28;20268;-52
2021/07/27 11:33:46;;;;;;;3.83;3.45;;;25.80;63.60;;;;;;5008397;28;20225;-53
2021/07/27 11:36:12;;;;;;;3.67;3.22;;;25.80;63.10;;;;;;5000496;28;20325;-49
2021/07/27 11:38:38;;;;;;;3.83;3.53;;;25.70;63.00;;;;;;5004835;28;21365;-51
2021/07/27 11:41:05;;;;;;;4.20;3.80;;;25.80;62.60;;;;;;5000484;28;20564;-49
2021/07/27 11:43:32;;;;;;;4.32;3.25;;;25.70;62.30;;;;;;5003326;28;20208;-51
2021/07/27 11:45:58;;;;;;;3.17;2.92;;;25.70;62.10;;;;;;5009990;28;20217;-55
2021/07/27 11:48:24;;;;;;;3.90;3.38;;;25.70;61.80;;;;;;5002318;28;20204;-51
2021/07/27 11:50:51;;;;;;;4.05;3.45;;;25.70;61.70;;;;;;5004042;28;20210;-54
2021/07/27 11:53:17;;;;;;;3.45;3.15;;;25.70;61.50;;;;;;5002992;28;20314;-53
2021/07/27 11:55:44;;;;;;;3.78;3.47;;;25.70;61.90;;;;;;5000274;28;20579;-50
2021/07/27 11:58:11;;;;;;;3.80;3.47;;;25.80;61.90;;;;;;5003919;28;20310;-51
2021/07/27 12:00:38;;;;;;;3.67;3.10;;;25.80;62.70;;;;;;5003007;28;20648;-47
2021/07/27 12:03:04;;;;;;;3.33;3.03;;;25.80;63.10;;;;;;5001942;28;20306;-51
2021/07/27 12:05:30;;;;;;;4.50;4.10;;;25.80;63.30;;;;;;5006564;28;20229;-54
2021/07/27 12:07:57;;;;;;;5.40;4.53;;;25.80;63.40;;;;;;5005934;28;20562;-51
2021/07/27 12:10:24;;;;;;;10.63;7.45;;;25.80;63.40;;;;;;5006069;28;20305;-46
2021/07/27 12:12:50;;;;;;;14.13;8.70;;;25.80;63.70;;;;;;5008521;28;20207;-49
2021/07/27 12:15:17;;;;;;;16.67;9.75;;;25.80;63.90;;;;;;5001991;28;20234;-53
2021/07/27 12:17:43;;;;;;;17.48;10.02;;;25.80;63.80;;;;;;5003899;28;20287;-52
2021/07/27 12:20:10;;;;;;;16.50;10.63;;;25.80;63.90;;;;;;5005037;28;20228;-45
2021/07/27 12:22:36;;;;;;;17.77;10.38;;;25.80;64.00;;;;;;5006672;28;20199;-50
2021/07/27 12:25:03;;;;;;;13.57;9.90;;;25.80;64.00;;;;;;5009439;28;20281;-50
2021/07/27 12:27:29;;;;;;;15.82;9.35;;;25.80;64.00;;;;;;5006840;28;20211;-49
2021/07/27 12:29:56;;;;;;;14.60;9.45;;;25.80;64.00;;;;;;5004722;28;20225;-52
2021/07/27 12:32:22;;;;;;;14.80;9.48;;;25.80;64.10;;;;;;5006460;28;20218;-58
2021/07/27 12:34:50;;;;;;;13.98;8.85;;;25.80;63.90;;;;;;5006776;28;20207;-43
2021/07/27 12:37:18;;;;;;;12.27;7.78;;;25.80;63.70;;;;;;5000948;28;20341;-44
2021/07/27 12:39:45;;;;;;;11.13;7.43;;;25.80;63.70;;;;;;5006747;28;20220;-47
2021/07/27 12:42:11;;;;;;;13.00;8.15;;;25.80;63.90;;;;;;5006424;28;20201;-47
2021/07/27 12:44:38;;;;;;;12.80;8.35;;;25.80;64.10;;;;;;5004378;28;20747;-50
2021/07/27 12:47:04;;;;;;;12.48;8.02;;;25.80;64.30;;;;;;5006574;28;20277;-46
2021/07/27 12:49:30;;;;;;;13.77;8.40;;;25.80;64.40;;;;;;5005049;28;20736;-45
2021/07/27 12:51:57;;;;;;;10.93;7.55;;;25.80;64.60;;;;;;5004063;28;20682;-47
2021/07/27 12:54:23;;;;;;;13.75;8.32;;;25.80;64.60;;;;;;5005457;28;20203;-43
2021/07/27 12:56:50;;;;;;;12.52;8.07;;;25.80;64.50;;;;;;5003299;28;20251;-48
2021/07/27 12:59:16;;;;;;;12.25;7.47;;;25.80;64.60;;;;;;5009669;28;20245;-46
2021/07/27 13:01:43;;;;;;;10.93;7.05;;;25.80;64.60;;;;;;5009016;28;20211;-50